Time;durP1;ratioP1;P1;durP2;ratioP2;P2;SDS_P1;SDS_P2;PMS_P1;PMS_P2;Temp;Humidity;BMP_temperature;BMP_pressure;BME280_temperature;BME280_humidity;BME280_pressure;Samples;Min_cycle;Max_cycle;Signal;HPM_P1;HPM_P2
2022/11/22 00:01:54;;;;;;;0.10;0.00;;;;;;;5.78;100.00;98956.72;5228226;28;20038;-67
2022/11/22 00:04:25;;;;;;;0.00;0.00;;;;;;;5.81;100.00;98960.88;5227633;28;20029;-67
2022/11/22 00:06:56;;;;;;;0.10;0.00;;;;;;;5.82;100.00;98957.28;5221291;28;20041;-68
2022/11/22 00:09:28;;;;;;;0.05;0.00;;;;;;;5.83;100.00;98948.34;5223015;28;20147;-68
2022/11/22 00:11:59;;;;;;;0.00;0.00;;;;;;;5.85;100.00;98943.81;5223274;28;20044;-68
2022/11/22 00:14:30;;;;;;;0.15;0.00;;;;;;;5.86;100.00;98942.81;5224405;28;20049;-68
2022/11/22 00:17:01;;;;;;;0.22;0.00;;;;;;;5.86;100.00;98941.00;5228423;28;20035;-68
2022/11/22 00:19:34;;;;;;;0.00;0.00;;;;;;;5.88;100.00;98951.44;5228729;28;20108;-67
2022/11/22 00:22:05;;;;;;;0.00;0.00;;;;;;;5.88;100.00;98948.81;5226871;28;20029;-67
2022/11/22 00:24:37;;;;;;;0.00;0.00;;;;;;;5.88;100.00;98947.00;5230801;28;20040;-68
2022/11/22 00:27:08;;;;;;;0.10;0.00;;;;;;;5.89;100.00;98946.03;5225719;28;20131;-68
2022/11/22 00:29:39;;;;;;;0.00;0.00;;;;;;;5.88;100.00;98948.81;5226695;28;20152;-68
2022/11/22 00:32:10;;;;;;;0.10;0.00;;;;;;;5.86;100.00;98946.28;5225061;28;20033;-68
2022/11/22 00:34:42;;;;;;;0.00;0.00;;;;;;;5.84;100.00;98947.41;5227967;28;20095;-68
2022/11/22 00:37:13;;;;;;;0.10;0.00;;;;;;;5.83;100.00;98959.81;5227567;28;20045;-67
2022/11/22 00:39:44;;;;;;;0.00;0.00;;;;;;;5.84;100.00;98958.00;5226431;28;20033;-67
2022/11/22 00:42:15;;;;;;;0.00;0.00;;;;;;;5.82;100.00;98944.06;5225812;28;20249;-67
2022/11/22 00:44:47;;;;;;;0.00;0.00;;;;;;;5.81;100.00;98959.09;5227884;28;20030;-67
2022/11/22 00:47:18;;;;;;;0.00;0.00;;;;;;;5.79;100.00;98953.13;5227528;28;20033;-67
2022/11/22 00:49:49;;;;;;;0.10;0.00;;;;;;;5.75;100.00;98950.84;5231496;28;20107;-68
2022/11/22 00:52:21;;;;;;;0.00;0.00;;;;;;;5.70;100.00;98949.44;5227672;28;20061;-67
2022/11/22 00:54:53;;;;;;;0.00;0.00;;;;;;;5.65;100.00;98956.09;5225585;28;20064;-68
2022/11/22 00:57:24;;;;;;;0.00;0.00;;;;;;;5.60;100.00;98951.22;5225435;28;20060;-67
2022/11/22 00:59:55;;;;;;;0.10;0.00;;;;;;;5.56;100.00;98949.81;5227146;28;20068;-67
2022/11/22 01:02:26;;;;;;;0.00;0.00;;;;;;;5.54;100.00;98949.06;5228462;28;20095;-67
2022/11/22 01:04:58;;;;;;;0.00;0.00;;;;;;;5.49;100.00;98943.38;5228010;28;21100;-68
2022/11/22 01:07:29;;;;;;;0.13;0.00;;;;;;;5.45;100.00;98944.59;5230670;28;20529;-68
2022/11/22 01:10:00;;;;;;;0.00;0.00;;;;;;;5.41;100.00;98951.13;5223998;28;20554;-67
2022/11/22 01:12:32;;;;;;;0.00;0.00;;;;;;;5.38;100.00;98954.84;5226018;28;20502;-68
2022/11/22 01:15:04;;;;;;;0.00;0.00;;;;;;;5.35;100.00;98963.06;5227897;28;20044;-68
2022/11/22 01:17:35;;;;;;;0.00;0.00;;;;;;;5.30;100.00;98957.31;5221893;28;20071;-68
2022/11/22 01:20:07;;;;;;;0.00;0.00;;;;;;;5.26;100.00;98974.41;5221658;28;20037;-68
2022/11/22 01:22:39;;;;;;;0.20;0.20;;;;;;;5.23;100.00;98969.38;5218775;28;20340;-67
2022/11/22 01:25:10;;;;;;;0.00;0.00;;;;;;;5.19;100.00;98973.25;5219231;28;20061;-68
2022/11/22 01:27:42;;;;;;;0.00;0.00;;;;;;;5.15;100.00;98970.03;5221791;28;20033;-68
2022/11/22 01:30:13;;;;;;;0.00;0.00;;;;;;;5.13;100.00;98968.50;5224463;28;20041;-68
2022/11/22 01:32:44;;;;;;;0.03;0.00;;;;;;;5.09;100.00;98958.16;5226948;28;21507;-68
2022/11/22 01:35:16;;;;;;;0.00;0.00;;;;;;;5.06;100.00;98970.78;5221364;28;20099;-67
2022/11/22 01:37:47;;;;;;;0.00;0.00;;;;;;;5.04;100.00;98963.03;5227846;28;20094;-68
2022/11/22 01:40:18;;;;;;;0.05;0.00;;;;;;;5.02;100.00;98969.38;5228272;28;20575;-68
2022/11/22 01:42:54;;;;;;;0.00;0.00;;;;;;;5.01;100.00;98970.38;5228853;28;20623;-68
2022/11/22 01:45:28;;;;;;;0.00;0.00;;;;;;;4.98;100.00;98984.66;5225505;28;20040;-67
2022/11/22 01:48:07;;;;;;;0.00;0.00;;;;;;;4.96;100.00;98994.50;5231150;28;20101;-68
2022/11/22 01:50:41;;;;;;;0.00;0.00;;;;;;;4.94;100.00;98990.34;5230731;28;20037;-67
2022/11/22 01:53:17;;;;;;;0.00;0.00;;;;;;;4.90;100.00;98985.28;5231072;28;20435;-68
2022/11/22 01:55:51;;;;;;;0.00;0.00;;;;;;;4.91;100.00;98994.06;5228561;28;20697;-68
2022/11/22 01:58:25;;;;;;;0.00;0.00;;;;;;;4.89;100.00;98991.56;5231710;28;20041;-67
2022/11/22 02:00:57;;;;;;;0.00;0.00;;;;;;;4.87;100.00;98993.50;5230568;28;20500;-67
2022/11/22 02:03:31;;;;;;;0.15;0.00;;;;;;;4.87;100.00;98987.34;5227830;28;20330;-68
2022/11/22 02:06:03;;;;;;;;;;;;;;;4.88;100.00;98984.59;5231112;28;20029;-68
2022/11/22 02:08:50;;;;;;;0.00;0.00;;;;;;;4.88;100.00;99002.25;5231893;28;20329;-68
2022/11/22 02:11:24;;;;;;;0.00;0.00;;;;;;;4.86;100.00;98993.59;5230232;28;20037;-68
2022/11/22 02:13:56;;;;;;;0.00;0.00;;;;;;;4.86;100.00;99001.53;5224068;28;20185;-69
2022/11/22 02:16:28;;;;;;;0.00;0.00;;;;;;;4.84;100.00;98985.81;5227410;28;20087;-70
2022/11/22 02:19:03;;;;;;;0.00;0.00;;;;;;;4.85;100.00;99005.13;5232684;28;20056;-69
2022/11/22 02:21:34;;;;;;;0.00;0.00;;;;;;;4.84;100.00;99000.81;5229034;28;20034;-69
2022/11/22 02:24:43;;;;;;;0.00;0.00;;;;;;;4.83;100.00;99005.28;5228366;28;20033;-69
2022/11/22 02:27:15;;;;;;;0.00;0.00;;;;;;;4.81;100.00;99001.91;5223735;28;20048;-69
2022/11/22 02:29:46;;;;;;;0.00;0.00;;;;;;;4.81;100.00;99001.06;5229847;28;20387;-68
2022/11/22 02:32:17;;;;;;;0.00;0.00;;;;;;;4.79;100.00;99005.63;5229592;28;20144;-69
2022/11/22 02:34:50;;;;;;;0.00;0.00;;;;;;;4.78;100.00;99015.38;5227801;28;20021;-68
2022/11/22 02:37:24;;;;;;;0.00;0.00;;;;;;;4.77;100.00;99010.22;5229404;28;20044;-68
2022/11/22 02:39:59;;;;;;;0.00;0.00;;;;;;;4.75;100.00;99015.63;5231423;28;20037;-68
2022/11/22 02:42:32;;;;;;;0.00;0.00;;;;;;;4.72;100.00;99003.50;5229735;28;20033;-68
2022/11/22 02:45:04;;;;;;;0.00;0.00;;;;;;;4.70;100.00;99012.53;5229563;28;20029;-68
2022/11/22 02:47:35;;;;;;;0.00;0.00;;;;;;;4.69;100.00;99009.03;5228121;28;20026;-68
2022/11/22 02:50:07;;;;;;;0.00;0.00;;;;;;;4.67;100.00;99002.22;5231739;28;20086;-68
2022/11/22 02:52:38;;;;;;;0.03;0.00;;;;;;;4.65;100.00;99009.41;5228905;28;20048;-68
2022/11/22 02:55:09;;;;;;;0.00;0.00;;;;;;;4.63;100.00;99017.47;5224749;28;20033;-68
2022/11/22 02:57:40;;;;;;;0.00;0.00;;;;;;;4.62;100.00;99021.09;5230069;28;20037;-68
2022/11/22 03:00:12;;;;;;;0.00;0.00;;;;;;;4.59;100.00;99023.97;5224923;28;20029;-68
2022/11/22 03:02:43;;;;;;;0.00;0.00;;;;;;;4.58;100.00;99008.22;5227374;28;20034;-68
2022/11/22 03:05:15;;;;;;;0.00;0.00;;;;;;;4.55;100.00;99013.78;5227224;28;20587;-68
2022/11/22 03:07:46;;;;;;;0.00;0.00;;;;;;;4.52;100.00;99014.84;5236581;28;20037;-68
2022/11/22 03:10:18;;;;;;;0.00;0.00;;;;;;;4.49;100.00;99008.03;5222113;28;20033;-69
2022/11/22 03:12:49;;;;;;;0.00;0.00;;;;;;;4.47;100.00;99022.31;5230715;28;20167;-68
2022/11/22 03:15:20;;;;;;;0.00;0.00;;;;;;;4.45;100.00;99035.66;5230018;28;20045;-68
2022/11/22 03:18:02;;;;;;;0.00;0.00;;;;;;;4.41;100.00;99034.22;5228301;28;20038;-68
2022/11/22 03:20:33;;;;;;;0.00;0.00;;;;;;;4.40;100.00;99037.81;5229712;28;20033;-69
2022/11/22 03:23:04;;;;;;;0.00;0.00;;;;;;;4.38;100.00;99037.09;5226231;28;20030;-69
2022/11/22 03:25:37;;;;;;;0.00;0.00;;;;;;;4.34;100.00;99038.31;5236319;28;20052;-68
2022/11/22 03:28:08;;;;;;;0.00;0.00;;;;;;;4.32;100.00;99032.31;5231531;28;20431;-68
2022/11/22 03:30:40;;;;;;;0.00;0.00;;;;;;;4.29;100.00;99041.28;5231273;28;20083;-69
2022/11/22 03:33:12;;;;;;;0.00;0.00;;;;;;;4.28;100.00;99044.06;5233900;28;20029;-69
2022/11/22 03:35:43;;;;;;;0.00;0.00;;;;;;;4.24;100.00;99038.19;5237181;28;20076;-68
2022/11/22 03:38:15;;;;;;;0.00;0.00;;;;;;;4.22;100.00;99045.41;5232858;28;20124;-68
2022/11/22 03:40:46;;;;;;;0.00;0.00;;;;;;;4.18;100.00;99037.81;5236748;28;20060;-68
2022/11/22 03:43:17;;;;;;;0.00;0.00;;;;;;;4.16;100.00;99034.47;5230746;28;20521;-67
2022/11/22 03:45:48;;;;;;;0.00;0.00;;;;;;;4.15;100.00;99049.47;5232830;28;20706;-68
2022/11/22 03:48:20;;;;;;;0.00;0.00;;;;;;;4.10;100.00;99047.22;5233277;28;20120;-68
2022/11/22 03:50:51;;;;;;;0.00;0.00;;;;;;;4.08;100.00;99037.72;5235688;28;20113;-67
2022/11/22 03:53:22;;;;;;;0.00;0.00;;;;;;;4.05;100.00;99038.81;5234424;28;20029;-68
2022/11/22 03:55:54;;;;;;;0.00;0.00;;;;;;;4.02;100.00;99043.47;5234149;28;20037;-68
2022/11/22 03:58:25;;;;;;;0.00;0.00;;;;;;;3.98;100.00;99037.59;5237652;28;20044;-68
2022/11/22 04:00:56;;;;;;;0.00;0.00;;;;;;;3.96;100.00;99046.59;5230643;28;20040;-68
2022/11/22 04:03:28;;;;;;;0.00;0.00;;;;;;;3.92;100.00;99052.09;5234464;28;20128;-68
2022/11/22 04:05:59;;;;;;;0.00;0.00;;;;;;;3.91;100.00;99046.94;5233965;28;20029;-68
2022/11/22 04:08:30;;;;;;;0.00;0.00;;;;;;;3.88;100.00;99044.56;5226123;28;20044;-68
2022/11/22 04:11:02;;;;;;;0.10;0.00;;;;;;;3.84;100.00;99033.41;5230527;28;20033;-68
2022/11/22 04:16:23;;;;;;;0.00;0.00;;;;;;;3.79;100.00;99064.56;5230784;28;20512;-67
2022/11/22 04:18:55;;;;;;;0.00;0.00;;;;;;;3.76;100.00;99063.97;5235898;28;20025;-67
2022/11/22 04:21:35;;;;;;;0.00;0.00;;;;;;;3.75;100.00;99078.13;5230445;28;20025;-68
2022/11/22 04:27:00;;;;;;;0.00;0.00;;;;;;;3.68;100.00;99088.28;5234793;28;20037;-68
2022/11/22 04:29:32;;;;;;;0.60;0.00;;;;;;;3.66;100.00;99084.94;5231496;28;20033;-68
2022/11/22 04:34:53;;;;;;;0.55;0.00;;;;;;;3.63;100.00;99074.63;5232104;28;20128;-68
2022/11/22 04:37:25;;;;;;;0.00;0.00;;;;;;;3.60;100.00;99078.31;5229300;28;20115;-68
2022/11/22 04:39:56;;;;;;;0.00;0.00;;;;;;;3.60;100.00;99080.97;5238228;28;20794;-68
2022/11/22 04:45:17;;;;;;;0.00;0.00;;;;;;;3.53;100.00;99080.59;5231827;28;20120;-68
2022/11/22 04:48:00;;;;;;;0.00;0.00;;;;;;;3.51;100.00;99081.69;5232009;28;20033;-67
2022/11/22 04:53:21;;;;;;;0.00;0.00;;;;;;;3.45;100.00;99088.25;5235129;28;20073;-68
2022/11/22 04:55:53;;;;;;;0.00;0.00;;;;;;;3.42;100.00;99088.47;5228353;28;20460;-68
2022/11/22 04:58:24;;;;;;;0.00;0.00;;;;;;;3.40;100.00;99089.56;5229552;28;20080;-68
2022/11/22 05:00:56;;;;;;;0.00;0.00;;;;;;;3.37;100.00;99085.34;5229298;28;20124;-68
2022/11/22 05:03:27;;;;;;;0.00;0.00;;;;;;;3.33;100.00;99092.63;5232408;28;20049;-68
2022/11/22 05:06:03;;;;;;;1.95;0.00;;;;;;;3.31;100.00;99091.91;5228844;28;21675;-68
2022/11/22 05:08:34;;;;;;;0.85;0.00;;;;;;;3.30;100.00;99089.41;5243281;28;20037;-68
2022/11/22 05:11:06;;;;;;;0.00;0.00;;;;;;;3.27;100.00;99095.72;5230803;28;20033;-68
2022/11/22 05:13:39;;;;;;;0.00;0.00;;;;;;;3.25;100.00;99095.00;5232202;28;20052;-68
2022/11/22 05:16:13;;;;;;;0.00;0.00;;;;;;;3.23;100.00;99093.44;5230533;28;20037;-68
2022/11/22 05:18:57;;;;;;;0.00;0.00;;;;;;;3.21;100.00;99096.19;5230016;28;20179;-68
2022/11/22 05:21:29;;;;;;;0.00;0.00;;;;;;;3.20;100.00;99094.50;5223262;28;20628;-68
2022/11/22 05:24:01;;;;;;;0.00;0.00;;;;;;;3.17;100.00;99089.47;5229956;28;20120;-68
2022/11/22 05:26:34;;;;;;;0.10;0.00;;;;;;;3.15;100.00;99091.38;5232151;28;20037;-68
2022/11/22 05:29:08;;;;;;;0.00;0.00;;;;;;;3.12;100.00;99089.78;5229047;28;20045;-68
2022/11/22 05:31:39;;;;;;;0.20;0.10;;;;;;;3.10;100.00;99089.06;5233183;28;20043;-69
2022/11/22 05:34:11;;;;;;;0.00;0.00;;;;;;;3.08;100.00;99085.72;5229943;28;20437;-68
2022/11/22 05:36:42;;;;;;;0.10;0.08;;;;;;;3.05;100.00;99080.69;5229628;28;20044;-68
2022/11/22 05:39:13;;;;;;;0.00;0.00;;;;;;;3.04;100.00;99078.16;5231447;28;20052;-68
2022/11/22 05:41:54;;;;;;;0.00;0.00;;;;;;;3.05;100.00;99079.81;5226624;28;20029;-68
2022/11/22 05:44:25;;;;;;;0.00;0.00;;;;;;;3.03;100.00;99087.88;5224858;28;20068;-68
2022/11/22 05:46:57;;;;;;;0.00;0.00;;;;;;;3.02;100.00;99090.59;5232274;28;20033;-68
2022/11/22 05:49:28;;;;;;;0.10;0.00;;;;;;;3.01;100.00;99087.13;5230831;28;20558;-67
2022/11/22 05:52:00;;;;;;;0.00;0.00;;;;;;;3.00;100.00;99090.72;5232547;28;20525;-68
2022/11/22 05:54:31;;;;;;;0.00;0.00;;;;;;;2.99;100.00;99083.75;5231826;28;20127;-67
2022/11/22 05:57:02;;;;;;;0.00;0.00;;;;;;;2.97;100.00;99076.91;5230759;28;20029;-68
2022/11/22 05:59:34;;;;;;;0.00;0.00;;;;;;;2.95;100.00;99071.75;5231309;28;20040;-67
2022/11/22 06:02:05;;;;;;;0.00;0.00;;;;;;;2.92;100.00;99067.56;5225872;28;20613;-68
2022/11/22 06:04:36;;;;;;;0.00;0.00;;;;;;;2.91;100.00;99071.13;5223615;28;20061;-68
2022/11/22 06:07:07;;;;;;;0.00;0.00;;;;;;;2.89;100.00;99080.13;5229052;28;20150;-69
2022/11/22 06:09:39;;;;;;;0.20;0.00;;;;;;;2.88;100.00;99086.34;5234526;28;20056;-68
2022/11/22 06:12:10;;;;;;;0.00;0.00;;;;;;;2.86;100.00;99077.72;5228547;28;20040;-68
2022/11/22 06:14:41;;;;;;;0.00;0.00;;;;;;;2.84;100.00;99084.88;5229980;28;20068;-69
2022/11/22 06:17:12;;;;;;;0.00;0.00;;;;;;;2.83;100.00;99081.41;5228133;28;20036;-65
2022/11/22 06:19:44;;;;;;;0.00;0.00;;;;;;;2.82;100.00;99090.28;5228976;28;20028;-65
2022/11/22 06:22:15;;;;;;;0.00;0.00;;;;;;;2.81;100.00;99085.13;5230975;28;20126;-65
2022/11/22 06:24:46;;;;;;;0.10;0.00;;;;;;;2.81;100.00;99093.84;5227572;28;20055;-65
2022/11/22 06:27:18;;;;;;;0.00;0.00;;;;;;;2.79;100.00;99098.38;5230740;28;20124;-65
2022/11/22 06:29:49;;;;;;;0.00;0.00;;;;;;;2.79;100.00;99098.38;5230613;28;20060;-65
2022/11/22 06:32:20;;;;;;;0.00;0.00;;;;;;;2.81;100.00;99095.66;5230771;28;20112;-65
2022/11/22 06:34:51;;;;;;;0.00;0.00;;;;;;;2.76;100.00;99090.69;5226880;28;20033;-65
2022/11/22 06:37:23;;;;;;;0.00;0.00;;;;;;;2.75;100.00;99097.75;5231757;28;20065;-65
2022/11/22 06:39:54;;;;;;;0.00;0.00;;;;;;;2.73;100.00;99101.47;5224071;28;20030;-66
2022/11/22 06:42:25;;;;;;;0.00;0.00;;;;;;;2.71;100.00;99101.56;5230325;28;20032;-65
2022/11/22 06:44:56;;;;;;;0.10;0.00;;;;;;;2.71;100.00;99108.63;5229455;28;20119;-65
2022/11/22 06:47:28;;;;;;;0.10;0.00;;;;;;;2.70;100.00;99105.16;5231059;28;20029;-65
2022/11/22 06:49:59;;;;;;;0.00;0.00;;;;;;;2.71;100.00;99112.09;5229017;28;20423;-66
2022/11/22 06:52:30;;;;;;;0.00;0.00;;;;;;;2.72;100.00;99112.94;5224156;28;20506;-65
2022/11/22 06:55:02;;;;;;;0.10;0.00;;;;;;;2.73;100.00;99106.72;5222239;28;20131;-65
2022/11/22 06:57:33;;;;;;;0.00;0.00;;;;;;;2.75;100.00;99110.94;5223006;28;20428;-66
2022/11/22 07:00:05;;;;;;;0.00;0.00;;;;;;;2.77;100.00;99118.72;5227203;28;20025;-65
2022/11/22 07:02:36;;;;;;;0.00;0.00;;;;;;;2.79;100.00;99119.44;5232097;28;20392;-65
2022/11/22 07:05:07;;;;;;;0.00;0.00;;;;;;;2.83;100.00;99125.34;5228286;28;20021;-65
2022/11/22 07:07:38;;;;;;;0.00;0.00;;;;;;;2.86;100.00;99125.97;5232636;28;20029;-65
2022/11/22 07:10:10;;;;;;;0.00;0.00;;;;;;;2.89;100.00;99131.00;5228125;28;20581;-65
2022/11/22 07:12:41;;;;;;;0.00;0.00;;;;;;;2.93;100.00;99131.63;5232320;28;20029;-65
2022/11/22 07:15:12;;;;;;;0.00;0.00;;;;;;;2.96;100.00;99133.22;5229866;28;20057;-65
2022/11/22 07:17:44;;;;;;;0.00;0.00;;;;;;;2.99;100.00;99138.22;5232848;28;20029;-65
2022/11/22 07:20:15;;;;;;;0.03;0.00;;;;;;;3.02;100.00;99128.31;5232718;28;20116;-65
2022/11/22 07:22:46;;;;;;;0.00;0.00;;;;;;;3.05;100.00;99127.25;5236419;28;20034;-65
2022/11/22 07:25:18;;;;;;;0.00;0.00;;;;;;;3.05;100.00;99128.09;5233680;28;20029;-65
2022/11/22 07:27:52;;;;;;;0.10;0.00;;;;;;;3.11;100.00;99132.09;5234336;28;20029;-65
2022/11/22 07:30:23;;;;;;;;;;;;;;;3.14;100.00;99137.13;5231942;28;20506;-65
2022/11/22 07:32:54;;;;;;;0.10;0.00;;;;;;;3.18;100.00;99140.38;5235387;28;19921;-65
2022/11/22 07:35:26;;;;;;;0.00;0.00;;;;;;;3.20;100.00;99144.56;5236429;28;20033;-65
2022/11/22 07:37:57;;;;;;;0.00;0.00;;;;;;;3.24;100.00;99143.41;5233176;28;20037;-65
2022/11/22 07:40:29;;;;;;;0.00;0.00;;;;;;;3.27;100.00;99145.81;5230224;28;20025;-65
2022/11/22 07:43:00;;;;;;;0.00;0.00;;;;;;;3.29;100.00;99138.63;5231790;28;20033;-65
2022/11/22 07:45:31;;;;;;;0.00;0.00;;;;;;;3.33;100.00;99140.06;5231766;28;20018;-65
2022/11/22 07:48:03;;;;;;;0.00;0.00;;;;;;;3.36;100.00;99132.88;5235903;28;20021;-65
2022/11/22 07:50:34;;;;;;;0.00;0.00;;;;;;;3.40;100.00;99139.66;5231265;28;20021;-65
2022/11/22 07:53:06;;;;;;;0.05;0.00;;;;;;;3.43;100.00;99139.41;5231252;28;20115;-64
2022/11/22 07:55:37;;;;;;;0.00;0.00;;;;;;;3.47;100.00;99140.84;5226444;28;20041;-64
2022/11/22 07:58:09;;;;;;;0.13;0.00;;;;;;;3.49;100.00;99144.22;5244780;28;20070;-64
2022/11/22 08:00:40;;;;;;;0.00;0.00;;;;;;;3.52;100.00;99149.25;5232992;28;20025;-64
2022/11/22 08:03:11;;;;;;;0.10;0.00;;;;;;;3.53;100.00;99137.78;5242455;28;20108;-64
2022/11/22 08:05:42;;;;;;;0.10;0.00;;;;;;;3.57;100.00;99141.00;5232990;28;20025;-65
2022/11/22 08:08:14;;;;;;;0.10;0.00;;;;;;;3.60;100.00;99140.78;5235038;28;20029;-65
2022/11/22 08:10:45;;;;;;;0.00;0.00;;;;;;;3.61;100.00;99145.94;5232375;28;20132;-65
2022/11/22 08:13:16;;;;;;;0.00;0.00;;;;;;;3.64;100.00;99143.06;5231332;28;20048;-65
2022/11/22 08:15:48;;;;;;;0.00;0.00;;;;;;;3.67;100.00;99144.66;5231467;28;20038;-65
2022/11/22 08:18:20;;;;;;;0.00;0.00;;;;;;;3.70;100.00;99150.53;5237212;28;20784;-65
2022/11/22 08:21:00;;;;;;;0.00;0.00;;;;;;;3.74;100.00;99159.06;5229392;28;20661;-64
2022/11/22 08:23:32;;;;;;;0.00;0.00;;;;;;;3.76;100.00;99146.59;5235838;28;20456;-64
2022/11/22 08:26:05;;;;;;;0.00;0.00;;;;;;;3.81;100.00;99151.50;5228790;28;20359;-64
2022/11/22 08:28:37;;;;;;;0.13;0.00;;;;;;;3.84;100.00;99153.94;5229101;28;20136;-64
2022/11/22 08:31:12;;;;;;;0.10;0.00;;;;;;;3.85;100.00;99161.69;5236024;28;20109;-65
2022/11/22 08:33:44;;;;;;;0.00;0.00;;;;;;;3.88;100.00;99153.56;5227312;28;20598;-65
2022/11/22 08:36:15;;;;;;;0.20;0.00;;;;;;;3.90;100.00;99158.72;5234576;28;20037;-65
2022/11/22 08:38:46;;;;;;;0.10;0.00;;;;;;;3.93;100.00;99159.34;5235903;28;20030;-65
2022/11/22 08:41:18;;;;;;;0.00;0.00;;;;;;;3.96;100.00;99163.53;5233167;28;20036;-65
2022/11/22 08:43:50;;;;;;;0.00;0.00;;;;;;;3.98;100.00;99172.16;5243867;28;20029;-65
2022/11/22 08:46:22;;;;;;;0.00;0.00;;;;;;;4.01;100.00;99158.75;5233011;28;20045;-65
2022/11/22 08:48:53;;;;;;;0.10;0.00;;;;;;;4.05;100.00;99162.84;5235711;28;20041;-65
2022/11/22 08:51:24;;;;;;;0.00;0.00;;;;;;;4.08;100.00;99159.13;5236953;28;20094;-65
2022/11/22 08:53:55;;;;;;;0.00;0.00;;;;;;;4.12;100.00;99160.56;5226656;28;20113;-65
2022/11/22 08:56:27;;;;;;;0.13;0.00;;;;;;;4.16;100.00;99159.38;5233752;28;20032;-65
2022/11/22 08:58:58;;;;;;;0.20;0.00;;;;;;;4.20;100.00;99160.81;5235672;28;21230;-65
2022/11/22 09:01:29;;;;;;;0.20;0.00;;;;;;;4.24;100.00;99158.78;5232696;28;20124;-65
2022/11/22 09:04:01;;;;;;;0.00;0.00;;;;;;;4.27;100.00;99161.19;5233195;28;20033;-65
2022/11/22 09:06:32;;;;;;;0.00;0.00;;;;;;;4.29;100.00;99165.38;5234323;28;20039;-65
2022/11/22 09:09:04;;;;;;;0.30;0.00;;;;;;;4.31;100.00;99167.91;5234394;28;20472;-65
2022/11/22 09:11:35;;;;;;;0.00;0.00;;;;;;;4.35;100.00;99166.69;5240151;28;20465;-65
2022/11/22 09:14:06;;;;;;;0.00;0.00;;;;;;;4.37;100.00;99167.41;5231389;28;20057;-65
2022/11/22 09:16:37;;;;;;;0.10;0.00;;;;;;;4.40;100.00;99171.63;5238048;28;20029;-66
2022/11/22 09:19:09;;;;;;;0.00;0.00;;;;;;;4.43;100.00;99172.25;5233890;28;20029;-65
2022/11/22 09:21:40;;;;;;;0.10;0.00;;;;;;;4.47;100.00;99159.66;5232961;28;20437;-65
2022/11/22 09:24:12;;;;;;;0.10;0.00;;;;;;;4.50;100.00;99167.31;5234822;28;20103;-65
2022/11/22 09:26:43;;;;;;;0.00;0.00;;;;;;;4.54;100.00;99166.09;5227731;28;20033;-65
2022/11/22 09:29:14;;;;;;;0.00;0.00;;;;;;;4.58;100.00;99179.91;5231364;28;20090;-65
2022/11/22 09:31:46;;;;;;;0.00;0.00;;;;;;;4.62;100.00;99173.41;5226254;28;20045;-66
2022/11/22 09:34:17;;;;;;;0.08;0.00;;;;;;;4.63;100.00;99165.38;5232704;28;20115;-65
2022/11/22 09:36:48;;;;;;;0.10;0.00;;;;;;;4.67;100.00;99163.34;5240814;28;20108;-65
2022/11/22 09:39:19;;;;;;;0.10;0.00;;;;;;;4.71;100.00;99170.88;5230445;28;20388;-65
2022/11/22 09:42:28;;;;;;;0.00;0.00;;;;;;;4.77;100.00;99171.38;5235168;28;20434;-66
2022/11/22 09:45:34;;;;;;;0.00;0.00;;;;;;;4.81;100.00;99172.81;5227092;28;20136;-66
2022/11/22 09:48:27;;;;;;;0.00;0.00;;;;;;;4.85;100.00;99184.81;5230693;28;20083;-65
2022/11/22 09:51:16;;;;;;;0.20;0.00;;;;;;;4.89;100.00;99176.53;5238461;28;20409;-65
2022/11/22 09:53:57;;;;;;;0.13;0.00;;;;;;;4.92;100.00;99175.44;5230275;28;20063;-66
2022/11/22 09:56:29;;;;;;;0.10;0.00;;;;;;;4.95;100.00;99172.56;5234563;28;20037;-65
2022/11/22 09:59:06;;;;;;;0.10;0.00;;;;;;;4.99;100.00;99165.22;5231382;28;20387;-65
2022/11/22 10:01:58;;;;;;;0.00;0.00;;;;;;;5.01;100.00;99179.16;5238996;28;20029;-65
2022/11/22 10:04:46;;;;;;;0.00;0.00;;;;;;;5.03;100.00;99182.53;5223871;28;20044;-66
2022/11/22 10:07:23;;;;;;;0.10;0.00;;;;;;;5.05;100.00;99191.16;5232172;28;20159;-65
2022/11/22 10:10:06;;;;;;;0.00;0.00;;;;;;;5.05;100.00;99186.72;5233920;28;20037;-66
2022/11/22 10:12:51;;;;;;;0.00;0.00;;;;;;;5.07;100.00;99186.59;5232322;28;20034;-66
2022/11/22 10:15:43;;;;;;;0.00;0.00;;;;;;;5.07;100.00;99181.31;5229101;28;20037;-66
2022/11/22 10:18:51;;;;;;;0.10;0.00;;;;;;;5.08;100.00;99186.47;5222591;28;20042;-66
2022/11/22 10:21:22;;;;;;;0.00;0.00;;;;;;;5.11;100.00;99166.88;5220388;28;20103;-66
2022/11/22 10:23:53;;;;;;;0.10;0.00;;;;;;;5.10;100.00;99165.19;5232229;28;20017;-66
2022/11/22 10:26:26;;;;;;;0.10;0.00;;;;;;;5.10;100.00;99168.69;5229454;28;20033;-66
2022/11/22 10:29:22;;;;;;;0.10;0.00;;;;;;;5.12;100.00;99171.22;5232124;28;20113;-66
2022/11/22 10:32:04;;;;;;;0.13;0.00;;;;;;;5.13;100.00;99169.41;5225072;28;20025;-66
2022/11/22 10:35:02;;;;;;;0.30;0.10;;;;;;;5.16;100.00;99161.19;5231470;28;20026;-66
2022/11/22 10:37:52;;;;;;;0.00;0.00;;;;;;;5.19;100.00;99156.50;5238561;28;20033;-66
2022/11/22 10:40:43;;;;;;;0.00;0.00;;;;;;;5.23;100.00;99163.22;5234281;28;20026;-66
2022/11/22 10:43:27;;;;;;;0.10;0.00;;;;;;;5.28;100.00;99152.28;5236911;28;20486;-65
2022/11/22 10:46:30;;;;;;;0.28;0.00;;;;;;;5.29;100.00;99153.94;5227954;28;20428;-65
2022/11/22 10:49:13;;;;;;;0.00;0.00;;;;;;;5.32;100.00;99147.59;5235414;28;20034;-65
2022/11/22 10:51:52;;;;;;;0.22;0.00;;;;;;;5.34;100.00;99143.00;5231928;28;20043;-65
2022/11/22 10:54:58;;;;;;;0.30;0.00;;;;;;;5.37;100.00;99154.19;5237866;28;20056;-66
2022/11/22 10:57:51;;;;;;;0.08;0.00;;;;;;;5.42;100.00;99151.16;5236684;28;20033;-66
2022/11/22 11:00:25;;;;;;;0.00;0.00;;;;;;;5.44;100.00;99151.84;5230874;28;20033;-66
2022/11/22 11:03:31;;;;;;;0.00;0.00;;;;;;;5.49;100.00;99153.16;5236655;28;20036;-66
2022/11/22 11:06:20;;;;;;;0.00;0.00;;;;;;;5.56;100.00;99147.34;5241884;28;20104;-63
2022/11/22 11:09:00;;;;;;;0.00;0.00;;;;;;;5.56;100.00;99139.41;5229938;28;21070;-65
2022/11/22 11:11:33;;;;;;;0.25;0.00;;;;;;;5.58;100.00;99138.34;5229450;28;20030;-65
2022/11/22 11:14:11;;;;;;;0.00;0.00;;;;;;;5.59;100.00;99131.25;5235556;28;20069;-65
2022/11/22 11:16:43;;;;;;;0.00;0.00;;;;;;;5.61;100.00;99124.00;5235227;28;20647;-65
2022/11/22 11:19:19;;;;;;;0.20;0.00;;;;;;;5.61;100.00;99127.50;5232370;28;20032;-65
2022/11/22 11:22:00;;;;;;;0.10;0.00;;;;;;;5.64;100.00;99126.41;5235487;28;20068;-65
2022/11/22 11:24:32;;;;;;;0.00;0.00;;;;;;;5.64;100.00;99114.00;5235575;28;20056;-66
2022/11/22 11:27:03;;;;;;;0.00;0.00;;;;;;;5.67;100.00;99119.03;5235281;28;20027;-66
2022/11/22 11:30:01;;;;;;;0.10;0.00;;;;;;;5.69;100.00;99118.91;5238469;28;20105;-66
2022/11/22 11:32:51;;;;;;;0.05;0.00;;;;;;;5.69;100.00;99118.91;5233741;28;20175;-65
2022/11/22 11:35:27;;;;;;;0.10;0.00;;;;;;;5.70;100.00;99120.59;5240940;28;20029;-66
2022/11/22 11:37:58;;;;;;;0.00;0.00;;;;;;;5.70;100.00;99105.56;5236295;28;20112;-65
2022/11/22 11:40:31;;;;;;;0.10;0.00;;;;;;;5.75;100.00;99109.63;5241313;28;20484;-65
2022/11/22 11:43:23;;;;;;;0.20;0.00;;;;;;;5.75;100.00;99112.25;5236219;28;20775;-65
2022/11/22 11:46:20;;;;;;;0.00;0.00;;;;;;;5.76;100.00;99109.50;5232789;28;20069;-65
2022/11/22 11:49:07;;;;;;;0.08;0.00;;;;;;;5.76;100.00;99113.94;5228821;28;20478;-65
2022/11/22 11:51:47;;;;;;;0.00;0.00;;;;;;;5.77;100.00;99112.97;5233453;28;20048;-65
2022/11/22 11:54:21;;;;;;;0.00;0.00;;;;;;;5.77;100.00;99110.31;5266497;28;20040;-65
2022/11/22 11:56:57;;;;;;;0.03;0.00;;;;;;;5.76;100.00;99108.66;5234542;28;20025;-65
2022/11/22 11:59:41;;;;;;;0.10;0.00;;;;;;;5.76;100.00;99104.19;5232767;28;20434;-65
2022/11/22 12:02:20;;;;;;;0.00;0.00;;;;;;;5.77;100.00;99107.69;5247799;28;20037;-65
2022/11/22 12:05:05;;;;;;;0.00;0.00;;;;;;;5.80;100.00;99115.38;5238918;28;20288;-64
2022/11/22 12:07:45;;;;;;;0.00;0.00;;;;;;;5.81;100.00;99115.25;5232742;28;20033;-65
2022/11/22 12:10:28;;;;;;;0.20;0.00;;;;;;;5.83;100.00;99108.00;5232350;28;20036;-65
2022/11/22 12:13:28;;;;;;;0.30;0.00;;;;;;;5.85;100.00;99115.81;5235799;28;20075;-65
2022/11/22 12:16:18;;;;;;;0.00;0.00;;;;;;;5.87;100.00;99114.72;5232378;28;20471;-65
2022/11/22 12:19:18;;;;;;;0.10;0.00;;;;;;;5.91;100.00;99104.72;5235336;28;20029;-65
2022/11/22 12:22:05;;;;;;;0.00;0.00;;;;;;;5.94;100.00;99107.06;5228636;28;20037;-65
2022/11/22 12:24:41;;;;;;;0.10;0.00;;;;;;;5.99;100.00;99098.81;5231590;28;20194;-65